Terminal Aerodrome Forecast
Issued by NWS

Home | Current Version | Previous Version | Text Only | Print | Product List | Glossary On
Versions: 1 2 3 4 5 6 7 8 9 10 11 12 13 14 15
856
FTUS41 KBTV 180530
TAFMSS
TAF
KMSS 180530Z 1806/1906 07009KT 6SM -SN OVC010
      TEMPO 1806/1810 1SM -SN BR OVC005
     FM181200 06006KT 4SM -SNPL BR OVC008
     FM181400 06006KT P6SM VCSH OVC015
     FM181900 34005KT P6SM OVC010
     FM182300 22004KT P6SM OVC008=

USA.gov is the U.S. government's official web portal to all federal, state and local government web resources and services.